Time;durP1;ratioP1;P1;durP2;ratioP2;P2;SDS_P1;SDS_P2;PMS_P1;PMS_P2;Temp;Humidity;BMP_temperature;BMP_pressure;BME280_temperature;BME280_humidity;BME280_pressure;Samples;Min_cycle;Max_cycle;Signal;HPM_P1;HPM_P2
2022/09/13 00:00:32;;;;;;;2.97;2.40;;;16.60;99.90;;;;;;5035939;28;20218;-57
2022/09/13 00:02:59;;;;;;;2.63;2.20;;;16.60;99.90;;;;;;5035728;28;20233;-57
2022/09/13 00:05:28;;;;;;;2.90;2.10;;;16.50;99.90;;;;;;5035905;28;20210;-56
2022/09/13 00:07:55;;;;;;;3.80;2.53;;;16.40;99.90;;;;;;5036119;28;20230;-57
2022/09/13 00:10:23;;;;;;;2.90;1.95;;;16.30;99.90;;;;;;5036160;28;20202;-57
2022/09/13 00:12:51;;;;;;;3.47;2.15;;;16.30;99.90;;;;;;5036232;28;20208;-57
2022/09/13 00:15:18;;;;;;;4.45;2.40;;;16.30;99.90;;;;;;5035688;28;20734;-57
2022/09/13 00:17:45;;;;;;;5.78;2.22;;;16.20;99.90;;;;;;5035686;28;20222;-57
2022/09/13 00:20:12;;;;;;;3.05;2.40;;;16.20;99.90;;;;;;5036125;28;20400;-57
2022/09/13 00:22:40;;;;;;;2.45;2.25;;;16.10;99.90;;;;;;5036827;28;20236;-57
2022/09/13 00:25:08;;;;;;;2.60;2.40;;;16.10;99.90;;;;;;5035767;28;20233;-57
2022/09/13 00:27:35;;;;;;;6.40;2.30;;;16.00;99.90;;;;;;5035751;28;20234;-57
2022/09/13 00:30:03;;;;;;;2.47;2.27;;;16.10;99.90;;;;;;5035715;28;20218;-58
2022/09/13 00:32:30;;;;;;;3.40;2.30;;;16.10;99.90;;;;;;5036836;28;20241;-56
2022/09/13 00:34:57;;;;;;;2.72;2.20;;;16.20;99.90;;;;;;5036807;28;20206;-57
2022/09/13 00:37:24;;;;;;;3.17;2.40;;;16.20;99.90;;;;;;5036435;28;20670;-57
2022/09/13 00:39:52;;;;;;;2.55;2.35;;;16.30;99.90;;;;;;5036447;28;20214;-56
2022/09/13 00:42:25;;;;;;;3.78;2.35;;;16.20;99.90;;;;;;5036226;28;20296;-57
2022/09/13 00:44:57;;;;;;;3.20;2.20;;;16.10;99.90;;;;;;5035113;28;20261;-57
2022/09/13 00:47:29;;;;;;;5.30;2.77;;;16.10;99.90;;;;;;5035148;28;20222;-57
2022/09/13 00:50:01;;;;;;;3.10;2.30;;;16.10;99.90;;;;;;5035534;28;20206;-57
2022/09/13 00:52:32;;;;;;;2.85;2.50;;;16.10;99.90;;;;;;5035079;28;20667;-58
2022/09/13 00:55:03;;;;;;;2.57;2.37;;;16.20;99.90;;;;;;5034875;28;20206;-57
2022/09/13 00:57:33;;;;;;;2.60;2.40;;;16.20;99.90;;;;;;5033925;28;20714;-57
2022/09/13 01:00:09;;;;;;;2.58;2.33;;;16.20;99.90;;;;;;5034427;28;20209;-57
2022/09/13 01:02:37;;;;;;;2.80;2.40;;;16.10;99.90;;;;;;5034295;28;20245;-57
2022/09/13 01:05:04;;;;;;;5.13;2.53;;;16.10;99.90;;;;;;5034426;28;20230;-57
2022/09/13 01:07:31;;;;;;;4.13;2.50;;;16.10;99.90;;;;;;5033924;28;20226;-57
2022/09/13 01:09:58;;;;;;;5.37;2.70;;;16.00;99.90;;;;;;5033885;28;20208;-57
2022/09/13 01:12:33;;;;;;;4.13;3.10;;;16.00;99.90;;;;;;5033713;28;20663;-57
2022/09/13 01:15:02;;;;;;;4.20;3.10;;;16.00;99.90;;;;;;5034091;28;20202;-57
2022/09/13 01:17:31;;;;;;;4.30;2.97;;;16.00;99.90;;;;;;5033696;28;20322;-57
2022/09/13 01:19:59;;;;;;;3.90;2.78;;;16.00;99.90;;;;;;5034073;28;20217;-57
2022/09/13 01:23:03;;;;;;;3.70;2.80;;;16.00;99.90;;;;;;5033829;28;20260;-56
2022/09/13 01:26:11;;;;;;;3.77;3.00;;;15.90;99.90;;;;;;5033245;28;20228;-57
2022/09/13 01:29:07;;;;;;;5.43;2.70;;;15.80;99.90;;;;;;5033191;28;20234;-56
2022/09/13 01:31:40;;;;;;;4.50;2.70;;;15.70;99.90;;;;;;5033325;28;20232;-56
2022/09/13 01:34:20;;;;;;;3.77;2.60;;;15.70;99.90;;;;;;5033449;28;20667;-58
2022/09/13 01:37:30;;;;;;;2.80;2.50;;;15.70;99.90;;;;;;5033216;28;20567;-57
2022/09/13 01:40:05;;;;;;;4.35;2.47;;;15.70;99.90;;;;;;5033743;28;20245;-57
2022/09/13 01:42:48;;;;;;;4.77;2.90;;;15.60;99.90;;;;;;5033679;28;20209;-58
2022/09/13 01:45:28;;;;;;;6.80;2.50;;;15.60;99.90;;;;;;5033412;28;20621;-57
2022/09/13 01:48:00;;;;;;;3.20;2.60;;;15.50;99.90;;;;;;5033005;28;20797;-57
2022/09/13 01:50:37;;;;;;;2.70;2.50;;;15.50;99.90;;;;;;5032909;28;20221;-57
2022/09/13 01:53:09;;;;;;;5.13;2.53;;;15.40;99.90;;;;;;5033220;28;20259;-56
2022/09/13 01:55:44;;;;;;;3.53;2.67;;;15.40;99.90;;;;;;5032408;28;20198;-56
2022/09/13 01:58:20;;;;;;;3.33;2.60;;;15.40;99.90;;;;;;5033894;28;20641;-57
2022/09/13 02:00:54;;;;;;;3.00;2.70;;;15.30;99.90;;;;;;5034058;28;20209;-57
2022/09/13 02:03:30;;;;;;;5.73;2.80;;;15.30;99.90;;;;;;5033475;28;20256;-57
2022/09/13 02:06:00;;;;;;;3.73;3.10;;;15.30;99.90;;;;;;5033255;28;20210;-56
2022/09/13 02:08:35;;;;;;;2.63;2.40;;;15.20;99.90;;;;;;5033394;28;20230;-57
2022/09/13 02:11:09;;;;;;;3.10;2.47;;;15.30;99.90;;;;;;5033777;28;20210;-57
2022/09/13 02:13:39;;;;;;;2.63;2.43;;;15.20;99.90;;;;;;5033026;28;20211;-57
2022/09/13 02:16:11;;;;;;;3.03;2.70;;;15.30;99.90;;;;;;5032673;28;20582;-57
2022/09/13 02:18:43;;;;;;;4.50;2.60;;;15.30;99.90;;;;;;5033099;28;20230;-57
2022/09/13 02:21:14;;;;;;;3.43;2.63;;;15.20;99.90;;;;;;5032637;28;20675;-57
2022/09/13 02:23:44;;;;;;;2.83;2.50;;;15.20;99.90;;;;;;5032579;28;20226;-57
2022/09/13 02:26:14;;;;;;;4.47;2.80;;;15.20;99.90;;;;;;5032920;28;20226;-57
2022/09/13 02:28:45;;;;;;;4.20;2.77;;;15.20;99.90;;;;;;5032265;28;20229;-57
2022/09/13 02:31:14;;;;;;;4.40;2.70;;;15.20;99.90;;;;;;5033281;28;20206;-57
2022/09/13 02:33:46;;;;;;;3.27;2.97;;;15.20;99.90;;;;;;5033042;28;20207;-56
2022/09/13 02:36:19;;;;;;;5.83;3.20;;;15.20;99.90;;;;;;5032751;28;20233;-56
2022/09/13 02:38:50;;;;;;;4.13;3.30;;;15.20;99.90;;;;;;5032954;28;20705;-57
2022/09/13 02:41:22;;;;;;;3.87;3.40;;;15.10;99.90;;;;;;5032848;28;20217;-56
2022/09/13 02:43:53;;;;;;;4.20;3.50;;;15.20;99.90;;;;;;5032824;28;20225;-58
2022/09/13 02:46:31;;;;;;;6.30;4.10;;;15.20;99.90;;;;;;5032519;28;20206;-57
2022/09/13 02:49:06;;;;;;;5.37;3.50;;;15.10;99.90;;;;;;5032794;28;20217;-57
2022/09/13 02:51:42;;;;;;;9.53;5.73;;;15.10;99.90;;;;;;5032828;28;20236;-57
2022/09/13 02:54:20;;;;;;;4.77;2.50;;;15.10;99.90;;;;;;5032554;28;20684;-58
2022/09/13 02:56:53;;;;;;;2.97;2.77;;;15.10;99.90;;;;;;5032539;28;20206;-57
2022/09/13 02:59:23;;;;;;;7.33;5.73;;;15.00;99.90;;;;;;5032925;28;20209;-56
2022/09/13 03:01:55;;;;;;;3.90;2.70;;;15.00;99.90;;;;;;5032803;28;20221;-57
2022/09/13 03:04:23;;;;;;;3.87;2.47;;;15.00;99.90;;;;;;5032777;28;20258;-57
2022/09/13 03:06:50;;;;;;;4.27;2.60;;;15.00;99.90;;;;;;5033607;28;20236;-57
2022/09/13 03:09:18;;;;;;;5.20;3.07;;;15.00;99.90;;;;;;5036552;28;20706;-57
2022/09/13 03:11:58;;;;;;;3.13;2.53;;;14.90;99.90;;;;;;5036882;28;20670;-57
2022/09/13 03:14:41;;;;;;;4.50;2.40;;;14.90;99.90;;;;;;5037163;28;20209;-58
2022/09/13 03:17:21;;;;;;;2.67;2.43;;;14.90;99.90;;;;;;5037156;28;20235;-57
2022/09/13 03:20:00;;;;;;;3.37;2.47;;;14.80;99.90;;;;;;5036897;28;20579;-57
2022/09/13 03:23:03;;;;;;;2.30;2.10;;;14.80;99.90;;;;;;5037109;28;20217;-57
2022/09/13 03:25:41;;;;;;;4.60;3.93;;;14.80;99.90;;;;;;5036833;28;20229;-57
2022/09/13 03:28:17;;;;;;;3.83;2.60;;;14.70;99.90;;;;;;5036466;28;20246;-57
2022/09/13 03:30:50;;;;;;;3.80;2.33;;;14.70;99.90;;;;;;5036250;28;20210;-57
2022/09/13 03:33:25;;;;;;;2.50;2.30;;;14.60;99.90;;;;;;5036337;28;20595;-57
2022/09/13 03:35:56;;;;;;;2.80;2.47;;;14.60;99.90;;;;;;5035745;28;20220;-57
2022/09/13 03:38:30;;;;;;;3.50;2.60;;;14.50;99.90;;;;;;5035642;28;20705;-57
2022/09/13 03:41:05;;;;;;;3.97;2.30;;;14.50;99.90;;;;;;5035750;28;20206;-55
2022/09/13 03:43:36;;;;;;;2.63;2.40;;;14.40;99.90;;;;;;5035484;28;20602;-57
2022/09/13 03:46:05;;;;;;;3.30;3.00;;;14.50;99.90;;;;;;5035508;28;20215;-57
2022/09/13 03:48:35;;;;;;;3.13;2.83;;;14.40;99.90;;;;;;5035716;28;20230;-57
2022/09/13 03:51:04;;;;;;;3.00;2.67;;;14.30;99.90;;;;;;5035835;28;20654;-57
2022/09/13 03:53:33;;;;;;;5.43;2.87;;;14.30;99.90;;;;;;5035352;28;20206;-57
2022/09/13 03:56:00;;;;;;;3.53;2.70;;;14.20;99.90;;;;;;5035386;28;20213;-57
2022/09/13 03:58:27;;;;;;;3.10;2.77;;;14.10;99.90;;;;;;5035302;28;20706;-57
2022/09/13 04:00:54;;;;;;;3.10;2.80;;;14.20;99.90;;;;;;5035069;28;20209;-57
2022/09/13 04:03:21;;;;;;;3.73;2.90;;;14.20;99.90;;;;;;5035230;28;20272;-57
2022/09/13 04:05:49;;;;;;;3.63;2.57;;;14.30;99.90;;;;;;5034853;28;20241;-57
2022/09/13 04:08:17;;;;;;;3.10;2.80;;;14.30;99.90;;;;;;5035296;28;20230;-57
2022/09/13 04:10:43;;;;;;;5.10;2.60;;;14.30;99.90;;;;;;5035604;28;20210;-56
2022/09/13 04:13:10;;;;;;;3.33;2.90;;;14.30;99.90;;;;;;5035472;28;20743;-58
2022/09/13 04:15:37;;;;;;;4.63;2.90;;;14.20;99.90;;;;;;5035101;28;20209;-57
2022/09/13 04:18:04;;;;;;;3.10;2.60;;;14.20;99.90;;;;;;5034444;28;20635;-57
2022/09/13 04:20:31;;;;;;;3.33;2.70;;;14.20;99.90;;;;;;5035030;28;20210;-58
2022/09/13 04:22:57;;;;;;;3.50;3.07;;;14.10;99.90;;;;;;5035207;28;20229;-56
2022/09/13 04:25:26;;;;;;;2.97;2.70;;;14.10;99.90;;;;;;5035299;28;20232;-57
2022/09/13 04:27:55;;;;;;;2.83;2.50;;;14.00;99.90;;;;;;5035319;28;20229;-55
2022/09/13 04:30:22;;;;;;;5.47;2.90;;;13.90;99.90;;;;;;5034908;28;20301;-55
2022/09/13 04:32:49;;;;;;;5.00;2.60;;;13.80;99.90;;;;;;5035079;28;20297;-55
2022/09/13 04:35:16;;;;;;;2.83;2.53;;;13.90;99.90;;;;;;5034699;28;20229;-55
2022/09/13 04:37:43;;;;;;;4.93;2.47;;;13.90;99.90;;;;;;5035288;28;20261;-55
2022/09/13 04:40:11;;;;;;;3.67;2.93;;;13.90;99.90;;;;;;5034442;28;20700;-56
2022/09/13 04:42:39;;;;;;;4.77;2.80;;;14.00;99.90;;;;;;5034644;28;20683;-55
2022/09/13 04:45:07;;;;;;;4.17;2.80;;;14.10;99.90;;;;;;5034685;28;20570;-55
2022/09/13 04:47:33;;;;;;;5.67;3.33;;;14.20;99.90;;;;;;5034658;28;20226;-55
2022/09/13 04:50:01;;;;;;;4.13;2.57;;;14.30;99.90;;;;;;5034711;28;20241;-56
2022/09/13 04:52:28;;;;;;;6.10;3.00;;;14.40;99.90;;;;;;5034468;28;20206;-55
2022/09/13 04:54:57;;;;;;;3.10;2.80;;;14.50;99.90;;;;;;5034626;28;20207;-55
2022/09/13 04:57:24;;;;;;;3.13;2.83;;;14.60;99.90;;;;;;5034461;28;20268;-54
2022/09/13 04:59:52;;;;;;;3.37;2.87;;;14.70;99.90;;;;;;5034321;28;20256;-57
2022/09/13 05:02:19;;;;;;;2.93;2.70;;;14.90;99.90;;;;;;5034580;28;20202;-56
2022/09/13 05:04:46;;;;;;;2.93;2.70;;;15.00;99.90;;;;;;5034415;28;20230;-55
2022/09/13 05:07:13;;;;;;;3.00;2.70;;;15.10;99.90;;;;;;5034140;28;20232;-55
2022/09/13 05:09:40;;;;;;;4.17;2.73;;;15.20;99.90;;;;;;5034462;28;20233;-54
2022/09/13 05:12:07;;;;;;;4.30;2.80;;;15.20;99.90;;;;;;5034146;28;20678;-55
2022/09/13 05:14:34;;;;;;;4.23;3.07;;;15.30;99.90;;;;;;5034359;28;20203;-56
2022/09/13 05:17:02;;;;;;;3.63;3.20;;;15.20;99.90;;;;;;5033933;28;20226;-55
2022/09/13 05:19:29;;;;;;;3.13;2.83;;;15.30;99.90;;;;;;5034514;28;20253;-55
2022/09/13 05:21:55;;;;;;;5.63;3.07;;;15.40;99.90;;;;;;5033970;28;20617;-55
2022/09/13 05:24:22;;;;;;;3.20;2.90;;;15.40;99.90;;;;;;5034088;28;20225;-55
2022/09/13 05:26:49;;;;;;;7.80;3.60;;;15.50;99.90;;;;;;5033178;28;20213;-55
2022/09/13 05:29:16;;;;;;;3.40;3.10;;;15.60;99.90;;;;;;5033512;28;20203;-55
2022/09/13 05:31:43;;;;;;;5.13;3.00;;;15.70;99.90;;;;;;5033759;28;20260;-55
2022/09/13 05:34:13;;;;;;;4.70;3.10;;;15.70;99.90;;;;;;5033951;28;20264;-55
2022/09/13 05:36:41;;;;;;;3.80;2.77;;;15.70;99.90;;;;;;5033741;28;20289;-55
2022/09/13 05:39:13;;;;;;;2.80;2.53;;;15.80;99.90;;;;;;5033735;28;20206;-55
2022/09/13 05:41:40;;;;;;;2.97;2.60;;;15.80;99.90;;;;;;5033411;28;20719;-55
2022/09/13 05:44:07;;;;;;;3.27;2.63;;;15.80;99.90;;;;;;5033416;28;20206;-54
2022/09/13 05:46:33;;;;;;;4.53;2.40;;;16.00;99.90;;;;;;5033548;28;20207;-55
2022/09/13 05:49:00;;;;;;;3.53;2.80;;;16.10;99.90;;;;;;5033734;28;20241;-55
2022/09/13 05:51:28;;;;;;;5.73;2.93;;;16.30;99.90;;;;;;5033652;28;20206;-55
2022/09/13 05:53:56;;;;;;;2.95;2.63;;;16.40;99.90;;;;;;5034263;28;20202;-55
2022/09/13 05:56:24;;;;;;;3.90;2.60;;;16.60;99.90;;;;;;5033850;28;20210;-55
2022/09/13 05:58:52;;;;;;;4.60;2.70;;;16.80;99.90;;;;;;5034603;28;20226;-55
2022/09/13 06:01:20;;;;;;;5.03;2.53;;;16.80;99.90;;;;;;5034014;28;20209;-55
2022/09/13 06:03:48;;;;;;;2.87;2.60;;;16.90;99.90;;;;;;5034298;28;20674;-54
2022/09/13 06:06:15;;;;;;;2.43;2.23;;;17.00;99.90;;;;;;5034454;28;20226;-55
2022/09/13 06:08:43;;;;;;;3.80;2.47;;;17.10;99.90;;;;;;5034903;28;20233;-54
2022/09/13 06:11:13;;;;;;;6.60;2.30;;;17.20;99.90;;;;;;5034232;28;20694;-56
2022/09/13 06:13:41;;;;;;;6.43;2.60;;;17.40;99.90;;;;;;5034322;28;20210;-54
2022/09/13 06:16:10;;;;;;;3.80;2.25;;;17.60;99.90;;;;;;5033351;28;20742;-53
2022/09/13 06:18:37;;;;;;;4.38;2.47;;;18.00;99.90;;;;;;5033434;28;20234;-54
2022/09/13 06:21:06;;;;;;;4.13;2.63;;;18.30;99.90;;;;;;5033213;28;20595;-55
2022/09/13 06:23:32;;;;;;;3.88;2.40;;;18.80;99.90;;;;;;5032603;28;20722;-54
2022/09/13 06:26:02;;;;;;;3.80;2.70;;;19.20;99.90;;;;;;5032716;28;20233;-55
2022/09/13 06:28:31;;;;;;;3.50;2.30;;;19.50;99.90;;;;;;5032489;28;20237;-55
2022/09/13 06:31:02;;;;;;;3.20;2.10;;;19.70;99.90;;;;;;5032829;28;20250;-55
2022/09/13 06:33:29;;;;;;;6.57;2.35;;;19.80;99.90;;;;;;5032581;28;20236;-54
2022/09/13 06:35:59;;;;;;;3.08;2.35;;;20.00;99.90;;;;;;5031975;28;20202;-55
2022/09/13 06:38:26;;;;;;;3.83;2.10;;;20.00;99.90;;;;;;5032649;28;20232;-55
2022/09/13 06:41:01;;;;;;;2.75;2.13;;;20.10;99.90;;;;;;5032601;28;20210;-55
2022/09/13 06:43:28;;;;;;;2.90;2.10;;;20.10;99.90;;;;;;5032105;28;20202;-55
2022/09/13 06:46:00;;;;;;;6.65;4.18;;;20.10;99.90;;;;;;5031575;28;20772;-55
2022/09/13 06:48:27;;;;;;;5.30;4.25;;;20.00;99.90;;;;;;5031898;28;20264;-55
2022/09/13 06:50:58;;;;;;;7.75;5.50;;;20.00;99.90;;;;;;5032096;28;20206;-54
2022/09/13 06:53:26;;;;;;;6.80;5.25;;;20.00;99.90;;;;;;5032246;28;20237;-55
2022/09/13 06:56:02;;;;;;;6.55;4.22;;;20.00;99.90;;;;;;5016030;28;20211;-59
2022/09/13 06:58:30;;;;;;;3.25;2.30;;;20.20;99.90;;;;;;5023607;28;20256;-55
2022/09/13 07:01:11;;;;;;;4.10;3.00;;;20.70;99.90;;;;;;5030826;28;20206;-55
2022/09/13 07:03:39;;;;;;;2.80;2.08;;;21.60;99.90;;;;;;5031211;28;20202;-55
2022/09/13 07:06:10;;;;;;;5.20;2.20;;;22.40;99.90;;;;;;5031515;28;20222;-55
2022/09/13 07:08:38;;;;;;;2.97;1.80;;;23.10;99.90;;;;;;5031329;28;20226;-55
2022/09/13 07:11:08;;;;;;;7.00;1.60;;;23.80;99.90;;;;;;5031507;28;20581;-55
2022/09/13 07:13:35;;;;;;;2.33;1.75;;;24.40;99.90;;;;;;5031473;28;20234;-55
2022/09/13 07:16:03;;;;;;;2.30;1.40;;;24.40;99.90;;;;;;5030833;28;20202;-57
2022/09/13 07:18:30;;;;;;;5.25;1.60;;;24.30;99.90;;;;;;5031270;28;20261;-62
2022/09/13 07:21:00;;;;;;;2.90;1.63;;;24.20;99.90;;;;;;5034174;28;20209;-63
2022/09/13 07:23:28;;;;;;;2.67;1.55;;;24.60;99.90;;;;;;5035181;28;20649;-63
2022/09/13 07:26:00;;;;;;;1.83;1.63;;;25.10;99.90;;;;;;5036538;28;20250;-62
2022/09/13 07:28:30;;;;;;;3.08;1.60;;;25.50;99.90;;;;;;5034274;28;20757;-61
2022/09/13 07:30:58;;;;;;;2.75;1.50;;;25.70;99.90;;;;;;5011800;28;20238;-58
2022/09/13 07:33:25;;;;;;;4.15;1.90;;;25.50;99.90;;;;;;5012695;28;20199;-67
2022/09/13 07:35:56;;;;;;;1.48;1.30;;;25.40;99.90;;;;;;5012756;28;20203;-59
2022/09/13 07:38:22;;;;;;;3.25;1.38;;;26.20;99.90;;;;;;5010171;28;20227;-59
2022/09/13 07:40:54;;;;;;;1.48;1.33;;;26.70;99.00;;;;;;5011528;28;20297;-59
2022/09/13 07:43:21;;;;;;;3.78;1.48;;;26.50;99.00;;;;;;5011604;28;20207;-59
2022/09/13 07:45:57;;;;;;;2.50;1.40;;;26.20;99.70;;;;;;5010216;28;20226;-57
2022/09/13 07:48:24;;;;;;;2.60;1.58;;;26.30;99.50;;;;;;5011281;28;20659;-61
2022/09/13 07:50:57;;;;;;;2.15;1.52;;;26.70;98.70;;;;;;5011040;28;20207;-61
2022/09/13 07:53:24;;;;;;;1.95;1.67;;;27.20;98.00;;;;;;5011309;28;20207;-57
2022/09/13 07:55:51;;;;;;;2.92;1.67;;;28.00;96.70;;;;;;5014779;28;20203;-58
2022/09/13 07:58:18;;;;;;;4.50;1.30;;;28.50;95.20;;;;;;5014124;28;20289;-59
2022/09/13 08:00:45;;;;;;;3.25;1.50;;;28.40;95.00;;;;;;5013078;28;20238;-59
2022/09/13 08:03:13;;;;;;;2.33;1.20;;;28.00;95.10;;;;;;5014219;28;20214;-60
2022/09/13 08:05:40;;;;;;;3.15;1.38;;;27.50;95.30;;;;;;5013726;28;20237;-60
2022/09/13 08:08:07;;;;;;;3.40;1.75;;;26.80;96.50;;;;;;5014161;28;20231;-59
2022/09/13 08:10:34;;;;;;;2.70;1.42;;;26.40;97.40;;;;;;5014429;28;20210;-61
2022/09/13 08:13:01;;;;;;;2.60;1.45;;;26.30;97.90;;;;;;5014519;28;20207;-59
2022/09/13 08:15:27;;;;;;;3.80;1.70;;;26.20;98.00;;;;;;5014765;28;20210;-60
2022/09/13 08:17:54;;;;;;;3.58;1.65;;;26.20;98.30;;;;;;5014167;28;20318;-57
2022/09/13 08:20:22;;;;;;;5.30;3.22;;;26.40;98.30;;;;;;5014484;28;20218;-56
2022/09/13 08:22:49;;;;;;;4.30;1.98;;;26.60;97.80;;;;;;5014331;28;20203;-57
2022/09/13 08:25:16;;;;;;;2.38;1.58;;;26.80;97.60;;;;;;5013369;28;20630;-57
2022/09/13 08:27:43;;;;;;;1.35;1.20;;;26.80;97.40;;;;;;5012031;28;20242;-58
2022/09/13 08:30:11;;;;;;;1.90;1.50;;;27.00;96.90;;;;;;5012590;28;20559;-59
2022/09/13 08:32:37;;;;;;;2.20;1.48;;;27.10;96.50;;;;;;5013596;28;20214;-57
2022/09/13 08:35:05;;;;;;;3.80;1.50;;;27.10;96.40;;;;;;5014193;28;20539;-58
2022/09/13 08:37:34;;;;;;;4.90;1.30;;;27.20;96.40;;;;;;5014098;28;20237;-58
2022/09/13 08:40:01;;;;;;;2.60;1.30;;;27.20;96.40;;;;;;5013935;28;20207;-61
2022/09/13 08:42:43;;;;;;;1.50;1.40;;;27.10;96.30;;;;;;5014553;28;20213;-59
2022/09/13 08:45:10;;;;;;;2.35;1.17;;;26.90;96.60;;;;;;5014080;28;20230;-59
2022/09/13 08:47:44;;;;;;;3.65;1.63;;;26.80;96.20;;;;;;5015014;28;20665;-59
2022/09/13 08:50:17;;;;;;;2.55;1.55;;;26.90;96.00;;;;;;5015872;28;20202;-59
2022/09/13 08:52:54;;;;;;;1.45;1.05;;;27.00;96.20;;;;;;5016243;28;20218;-59
2022/09/13 08:55:40;;;;;;;2.33;1.52;;;27.30;95.80;;;;;;5016464;28;20207;-59
2022/09/13 08:58:26;;;;;;;1.52;1.30;;;27.40;95.70;;;;;;5015686;28;20237;-60
2022/09/13 09:01:02;;;;;;;2.85;1.48;;;27.60;94.70;;;;;;5015876;28;20210;-61
2022/09/13 09:03:38;;;;;;;3.40;1.52;;;27.70;92.10;;;;;;5015856;28;20214;-59
2022/09/13 09:06:12;;;;;;;2.80;1.40;;;28.00;91.70;;;;;;5015172;28;20222;-59
2022/09/13 09:08:46;;;;;;;1.88;1.20;;;28.40;91.50;;;;;;5015725;28;20230;-62
2022/09/13 09:11:24;;;;;;;3.78;2.03;;;28.90;90.00;;;;;;5016152;28;20210;-59
2022/09/13 09:13:54;;;;;;;2.03;1.70;;;29.30;87.40;;;;;;5015683;28;20706;-59
2022/09/13 09:16:32;;;;;;;4.43;1.52;;;29.50;87.60;;;;;;5016019;28;20659;-61
2022/09/13 09:19:07;;;;;;;2.75;1.40;;;29.60;89.10;;;;;;5016032;28;20245;-59
2022/09/13 09:21:34;;;;;;;3.35;1.40;;;29.70;89.20;;;;;;5016484;28;20209;-59
2022/09/13 09:24:04;;;;;;;2.08;1.73;;;29.70;89.00;;;;;;5016022;28;20219;-59
2022/09/13 09:26:31;;;;;;;6.47;1.33;;;29.80;88.30;;;;;;5015450;28;20862;-59
2022/09/13 09:29:00;;;;;;;2.00;1.38;;;29.70;88.20;;;;;;5016067;28;20250;-59
2022/09/13 09:31:37;;;;;;;3.47;1.30;;;29.60;88.30;;;;;;5015685;28;20207;-59
2022/09/13 09:34:14;;;;;;;3.03;1.33;;;29.70;87.50;;;;;;5015235;28;20229;-61
2022/09/13 09:36:45;;;;;;;3.45;1.30;;;29.50;86.50;;;;;;5015423;28;20202;-59
2022/09/13 09:39:15;;;;;;;3.13;1.63;;;29.30;88.70;;;;;;5015104;28;20211;-61
2022/09/13 09:41:43;;;;;;;4.10;1.70;;;29.00;90.00;;;;;;5015134;28;20207;-58
2022/09/13 09:44:18;;;;;;;2.15;1.30;;;28.80;90.40;;;;;;5014347;28;20571;-62
2022/09/13 09:46:49;;;;;;;1.95;1.50;;;28.90;90.80;;;;;;5014692;28;20226;-59
2022/09/13 09:52:07;;;;;;;2.45;1.50;;;29.10;90.70;;;;;;5014275;28;20668;-59
2022/09/13 09:54:37;;;;;;;2.65;1.42;;;29.30;90.40;;;;;;5014045;28;20214;-61
2022/09/13 09:57:05;;;;;;;5.43;1.77;;;29.30;89.90;;;;;;5013747;28;20222;-62
2022/09/13 09:59:33;;;;;;;2.45;1.48;;;29.10;89.20;;;;;;5013636;28;20261;-61
2022/09/13 10:02:03;;;;;;;1.30;1.20;;;29.00;89.40;;;;;;5013797;28;20428;-60
2022/09/13 10:04:30;;;;;;;2.20;1.20;;;28.80;87.60;;;;;;5013383;28;20624;-59
2022/09/13 10:07:11;;;;;;;1.98;1.33;;;28.80;88.60;;;;;;5013353;28;20319;-60
2022/09/13 10:09:39;;;;;;;3.75;1.27;;;28.80;87.50;;;;;;5013836;28;20667;-59
2022/09/13 10:12:07;;;;;;;1.65;1.10;;;28.90;86.70;;;;;;5013630;28;20207;-59
2022/09/13 10:14:38;;;;;;;2.45;1.30;;;28.70;86.80;;;;;;5013392;28;20237;-59
2022/09/13 10:17:17;;;;;;;3.00;1.40;;;28.50;87.60;;;;;;5012639;28;20230;-58
2022/09/13 10:19:57;;;;;;;1.50;1.08;;;28.50;88.30;;;;;;5013133;28;20215;-59
2022/09/13 10:22:24;;;;;;;1.20;1.10;;;28.60;87.60;;;;;;5013520;28;20257;-59
2022/09/13 10:24:53;;;;;;;1.65;1.17;;;28.40;87.20;;;;;;5013088;28;20210;-61
2022/09/13 10:27:29;;;;;;;2.17;1.88;;;28.30;87.90;;;;;;5040709;22;20244;-60
2022/09/13 10:29:59;;;;;;;2.47;1.25;;;28.30;88.20;;;;;;5023568;28;20198;-60
2022/09/13 10:32:27;;;;;;;2.58;1.40;;;28.30;88.30;;;;;;5031669;28;20217;-61
2022/09/13 10:34:55;;;;;;;3.25;1.30;;;28.50;88.10;;;;;;5031801;28;20259;-59
2022/09/13 10:37:25;;;;;;;1.88;1.38;;;28.70;87.00;;;;;;5024070;28;20744;-59
2022/09/13 10:39:58;;;;;;;1.80;1.05;;;28.90;85.20;;;;;;5011380;28;20191;-61
2022/09/13 10:42:28;;;;;;;2.78;1.30;;;28.90;84.00;;;;;;5010979;28;20206;-59
2022/09/13 10:44:57;;;;;;;1.45;1.08;;;29.10;84.10;;;;;;5011358;28;20847;-61
2022/09/13 10:47:30;;;;;;;3.17;1.30;;;29.40;83.00;;;;;;5010419;28;20234;-61
2022/09/13 10:49:58;;;;;;;1.75;1.27;;;29.50;81.50;;;;;;5011389;28;20217;-58
2022/09/13 10:52:31;;;;;;;1.27;0.70;;;29.60;81.00;;;;;;5011909;28;20687;-58
2022/09/13 10:57:52;;;;;;;2.25;1.33;;;29.60;79.50;;;;;;5102249;27;20865;-60
2022/09/13 11:00:21;;;;;;;2.40;1.17;;;29.90;78.30;;;;;;5089337;28;20250;-58
2022/09/13 11:03:17;;;;;;;1.17;1.00;;;30.10;78.80;;;;;;5089715;28;20215;-58
2022/09/13 11:05:52;;;;;;;2.35;1.02;;;30.60;78.80;;;;;;5089706;28;20200;-59
2022/09/13 11:08:35;;;;;;;2.05;1.20;;;31.00;76.80;;;;;;5089301;28;20227;-59
2022/09/13 11:11:10;;;;;;;2.50;1.00;;;31.50;75.60;;;;;;5101843;22;20229;-62
2022/09/13 11:13:54;;;;;;;1.55;1.17;;;32.00;72.70;;;;;;5041221;28;20205;-62
2022/09/13 11:16:35;;;;;;;4.35;2.55;;;32.20;70.50;;;;;;5030451;28;20228;-62
2022/09/13 11:19:32;;;;;;;2.03;1.17;;;32.30;69.20;;;;;;5029949;28;20297;-62
2022/09/13 11:22:25;;;;;;;2.53;0.88;;;32.40;69.30;;;;;;5029905;28;20257;-63
2022/09/13 11:25:03;;;;;;;1.58;0.93;;;32.40;68.30;;;;;;5030137;28;20279;-63
2022/09/13 11:27:37;;;;;;;2.00;0.90;;;32.50;65.90;;;;;;5029820;28;20202;-62
2022/09/13 11:30:13;;;;;;;1.48;0.70;;;32.70;64.70;;;;;;5030446;28;20233;-62
2022/09/13 11:33:02;;;;;;;2.33;0.95;;;32.90;63.10;;;;;;5030069;28;20237;-62
2022/09/13 11:35:49;;;;;;;1.30;0.80;;;33.10;60.10;;;;;;5030281;28;20610;-60
2022/09/13 11:38:29;;;;;;;1.13;1.00;;;33.30;60.60;;;;;;5029996;28;20210;-62
2022/09/13 11:41:01;;;;;;;2.55;1.00;;;33.10;64.30;;;;;;5030192;28;20253;-63
2022/09/13 11:43:43;;;;;;;1.42;1.25;;;33.10;64.60;;;;;;5030005;28;20645;-62
2022/09/13 11:46:20;;;;;;;3.17;0.90;;;32.90;64.60;;;;;;5030181;28;20202;-61
2022/09/13 11:49:04;;;;;;;1.52;1.00;;;32.70;64.80;;;;;;5030543;28;20206;-62
2022/09/13 11:51:42;;;;;;;4.65;1.60;;;32.60;64.60;;;;;;5030631;28;20249;-61
2022/09/13 11:54:29;;;;;;;3.92;1.13;;;32.60;64.40;;;;;;5030817;28;20678;-62
2022/09/13 11:57:01;;;;;;;2.17;1.15;;;32.70;62.70;;;;;;5029513;28;20333;-62
2022/09/13 11:59:38;;;;;;;2.80;1.35;;;32.90;64.40;;;;;;5029882;28;20202;-61
2022/09/13 12:02:18;;;;;;;1.05;0.95;;;32.90;65.60;;;;;;5030207;28;20232;-62
2022/09/13 12:04:52;;;;;;;3.60;0.90;;;32.80;63.90;;;;;;5029815;28;20214;-62
2022/09/13 12:07:29;;;;;;;1.98;1.00;;;32.60;64.60;;;;;;5026644;28;20285;-62
2022/09/13 12:10:03;;;;;;;1.65;0.80;;;32.40;63.70;;;;;;5016897;28;20207;-62
2022/09/13 12:12:34;;;;;;;2.55;0.98;;;32.60;62.80;;;;;;5016670;28;20235;-61
2022/09/13 12:15:06;;;;;;;2.50;1.00;;;32.70;63.50;;;;;;5016639;28;20214;-62
2022/09/13 12:17:40;;;;;;;2.00;1.10;;;32.70;61.70;;;;;;5017105;28;20223;-62
2022/09/13 12:20:18;;;;;;;1.23;0.55;;;32.60;61.20;;;;;;5017098;28;20597;-62
2022/09/13 12:22:47;;;;;;;4.40;1.08;;;32.40;61.20;;;;;;5016456;28;20210;-61
2022/09/13 12:25:21;;;;;;;3.22;1.10;;;32.50;61.50;;;;;;5016272;28;20218;-62
2022/09/13 12:27:56;;;;;;;6.80;1.70;;;32.50;60.60;;;;;;5015469;28;20297;-60
2022/09/13 12:30:27;;;;;;;1.15;0.80;;;32.70;60.50;;;;;;5016240;28;20265;-61
2022/09/13 12:32:56;;;;;;;2.20;0.90;;;33.00;59.60;;;;;;5015844;28;20226;-60
2022/09/13 12:35:29;;;;;;;1.70;0.80;;;33.10;58.20;;;;;;5015953;28;20238;-62
2022/09/13 12:38:14;;;;;;;1.10;0.80;;;33.10;57.80;;;;;;5015550;28;20235;-62
2022/09/13 12:41:04;;;;;;;2.30;0.80;;;33.00;57.80;;;;;;5015934;28;20227;-62
2022/09/13 12:43:53;;;;;;;2.20;0.80;;;33.00;57.60;;;;;;5015605;28;20207;-62
2022/09/13 12:46:41;;;;;;;1.20;0.90;;;33.00;57.10;;;;;;4985777;28;20305;-62
2022/09/13 12:49:25;;;;;;;4.10;1.00;;;33.10;56.90;;;;;;5012876;28;20746;-62
2022/09/13 12:52:04;;;;;;;1.10;0.90;;;33.20;56.50;;;;;;5015257;28;20231;-62
2022/09/13 12:54:56;;;;;;;2.70;1.30;;;33.30;55.80;;;;;;5014939;28;20230;-62
2022/09/13 12:57:35;;;;;;;0.77;0.73;;;33.30;55.60;;;;;;5012923;28;20237;-62
2022/09/13 13:00:12;;;;;;;0.77;0.60;;;33.20;57.50;;;;;;5015246;28;20273;-62
2022/09/13 13:02:42;;;;;;;3.65;1.20;;;33.10;58.10;;;;;;5015073;28;20227;-62
2022/09/13 13:05:23;;;;;;;1.48;0.60;;;33.10;57.90;;;;;;5014925;28;20210;-62
2022/09/13 13:07:54;;;;;;;1.63;0.90;;;33.10;56.90;;;;;;5014567;28;20580;-62
2022/09/13 13:10:31;;;;;;;2.70;0.70;;;32.90;56.20;;;;;;5014707;28;20207;-62
2022/09/13 13:13:10;;;;;;;3.35;0.80;;;32.80;56.90;;;;;;5014418;28;20211;-61
2022/09/13 13:16:24;;;;;;;1.15;0.90;;;32.50;57.40;;;;;;5014525;28;20697;-62
2022/09/13 13:18:52;;;;;;;0.70;0.70;;;32.30;57.80;;;;;;4953275;28;20296;-61